createdAt,value
2019-02-07T10:13:42.338Z,11.60
2019-02-07T10:16:17.812Z,11.11
2019-02-07T10:19:04.867Z,10.64
2019-02-07T10:21:41.857Z,10.57
2019-02-07T10:24:18.826Z,10.49
2019-02-07T10:26:59.059Z,10.26
2019-02-07T10:29:39.328Z,9.89
2019-02-07T10:32:10.470Z,10.09
2019-02-07T10:34:56.376Z,10.22
2019-02-07T10:37:28.883Z,10.62
2019-02-07T10:39:59.926Z,10.26
2019-02-07T10:42:33.881Z,10.53
2019-02-07T10:45:08.521Z,9.75
2019-02-07T10:47:45.510Z,9.52
2019-02-07T10:50:31.667Z,9.28
2019-02-07T10:53:05.359Z,9.32
2019-02-07T10:55:36.877Z,9.01
2019-02-07T10:58:19.811Z,9.18
2019-02-07T11:00:56.804Z,9.10
2019-02-07T11:03:45.161Z,8.97
2019-02-07T11:06:18.977Z,8.88
2019-02-07T11:08:52.978Z,8.49
2019-02-07T11:11:24.000Z,8.16
2019-02-07T11:13:57.742Z,8.02
2019-02-07T11:16:45.111Z,7.63
2019-02-07T11:19:21.331Z,7.34
2019-02-07T11:21:54.579Z,7.47
2019-02-07T11:24:28.783Z,7.45
2019-02-07T11:26:59.806Z,7.18
2019-02-07T11:29:30.784Z,7.21
2019-02-07T11:32:20.013Z,7.16
2019-02-07T11:35:07.131Z,7.09
2019-02-07T11:37:47.064Z,6.60
2019-02-07T11:40:24.234Z,6.61
2019-02-07T11:43:10.902Z,6.38
2019-02-07T11:45:57.355Z,6.55
2019-02-07T11:48:37.105Z,6.59
2019-02-07T11:51:16.817Z,6.84
2019-02-07T11:53:59.722Z,7.00
2019-02-07T11:56:31.079Z,7.63
2019-02-07T11:59:02.148Z,8.12
2019-02-07T12:01:33.121Z,9.15
2019-02-07T12:04:04.797Z,9.38
2019-02-07T12:06:53.944Z,9.14
2019-02-07T12:09:39.939Z,8.70
2019-02-07T12:12:12.480Z,9.30
2019-02-07T12:14:56.023Z,9.60
2019-02-07T12:17:35.981Z,9.14
2019-02-07T12:20:13.086Z,9.18
2019-02-07T12:22:59.895Z,8.71
2019-02-07T12:25:37.235Z,8.35
2019-02-07T12:28:10.881Z,8.05
2019-02-07T12:30:50.650Z,7.88
2019-02-07T12:33:21.624Z,8.20
2019-02-07T12:35:52.630Z,8.48
2019-02-07T12:38:23.606Z,8.76
2019-02-07T12:40:57.276Z,9.03
2019-02-07T12:43:39.962Z,8.96
2019-02-07T12:46:26.602Z,8.68
2019-02-07T12:48:57.583Z,9.18
2019-02-07T12:51:28.636Z,9.11
2019-02-07T12:54:02.319Z,8.77
2019-02-07T12:56:33.366Z,8.79
2019-02-07T12:59:10.342Z,8.26
2019-02-07T13:01:47.296Z,7.97
2019-02-07T13:04:24.001Z,8.18
2019-02-07T13:06:55.025Z,8.10
2019-02-07T13:09:26.016Z,8.11
2019-02-07T13:12:00.017Z,8.02
2019-02-07T13:14:33.640Z,8.15
2019-02-07T13:17:04.628Z,7.68
2019-02-07T13:19:40.608Z,7.47
2019-02-07T13:22:16.493Z,7.36
2019-02-07T13:24:50.594Z,7.15
2019-02-07T13:27:27.478Z,7.17
2019-02-07T13:30:01.109Z,7.25
2019-02-07T13:32:32.147Z,6.90
2019-02-07T13:35:03.117Z,6.78
2019-02-07T13:37:34.684Z,6.73
2019-02-07T13:40:24.433Z,6.79
2019-02-07T13:42:55.493Z,6.91
2019-02-07T13:45:26.758Z,7.18
2019-02-07T13:48:00.895Z,7.28
2019-02-07T13:50:47.828Z,7.41
2019-02-07T13:53:21.829Z,7.36
2019-02-07T13:56:08.671Z,7.38
2019-02-07T13:58:49.356Z,7.37
2019-02-07T14:01:20.335Z,7.22
2019-02-07T14:04:10.330Z,7.07
2019-02-07T14:06:41.575Z,6.95
2019-02-07T14:09:15.550Z,6.89
2019-02-07T14:11:49.896Z,6.65
2019-02-07T14:14:36.854Z,6.55
2019-02-07T14:17:07.863Z,6.59
2019-02-07T14:19:38.892Z,6.53
2019-02-07T14:22:10.163Z,6.58
2019-02-07T14:24:57.544Z,6.44
2019-02-07T14:27:40.351Z,6.42
2019-02-07T14:30:13.562Z,6.29
2019-02-07T14:32:47.601Z,6.25
2019-02-07T14:35:33.171Z,6.25
2019-02-07T14:38:07.109Z,6.28
2019-02-07T14:40:43.777Z,6.23
2019-02-07T14:43:29.575Z,6.19
2019-02-07T14:46:06.144Z,6.11
2019-02-07T14:48:35.659Z,5.91
2019-02-07T14:51:05.041Z,5.82
2019-02-07T14:53:34.387Z,5.73
2019-02-07T14:56:03.754Z,5.70
2019-02-07T14:58:33.125Z,5.68
2019-02-07T15:01:02.484Z,5.63
2019-02-07T15:03:31.850Z,5.53
2019-02-07T15:06:02.709Z,5.49
2019-02-07T15:08:32.086Z,5.52
2019-02-07T15:11:01.430Z,5.48
2019-02-07T15:13:30.815Z,5.38
2019-02-07T15:16:00.152Z,5.29
2019-02-07T15:18:29.525Z,5.22
2019-02-07T15:20:58.938Z,5.20
2019-02-07T15:23:28.314Z,5.16
2019-02-07T15:25:57.674Z,5.10
2019-02-07T15:28:27.039Z,5.07
2019-02-07T15:30:56.374Z,4.95
2019-02-07T15:33:25.751Z,4.89
2019-02-07T15:35:55.084Z,4.81
2019-02-07T15:38:24.455Z,4.68
2019-02-07T15:40:53.799Z,4.62
2019-02-07T15:43:23.168Z,4.57
2019-02-07T15:45:52.501Z,4.55
2019-02-07T15:48:22.046Z,4.45
2019-02-07T15:50:51.391Z,4.44
2019-02-07T15:53:20.776Z,4.39
2019-02-07T15:55:50.116Z,4.33
2019-02-07T15:58:21.124Z,4.35
2019-02-07T16:00:52.104Z,4.25
2019-02-07T16:03:35.215Z,4.28
2019-02-07T16:06:06.482Z,4.24
2019-02-07T16:08:36.024Z,4.25
2019-02-07T16:11:05.524Z,4.20
2019-02-07T16:13:35.268Z,4.17
2019-02-07T16:16:04.610Z,4.22
2019-02-07T16:18:34.001Z,4.13
2019-02-07T16:21:03.351Z,4.12
2019-02-07T16:23:32.714Z,3.99
2019-02-07T16:26:02.058Z,3.96
2019-02-07T16:28:31.599Z,4.00
2019-02-07T16:31:00.929Z,3.91
2019-02-07T16:33:30.304Z,3.92
2019-02-07T16:35:59.633Z,3.91
2019-02-07T16:38:28.997Z,3.84
2019-02-07T16:40:59.440Z,3.81
2019-02-07T16:43:28.938Z,3.82
2019-02-07T16:45:58.265Z,3.82
2019-02-07T16:48:27.634Z,3.79
2019-02-07T16:51:00.243Z,3.75
2019-02-07T16:53:28.039Z,3.76
2019-02-07T16:55:57.377Z,3.77
2019-02-07T16:58:26.758Z,3.71
2019-02-07T17:00:56.101Z,3.69
2019-02-07T17:03:25.544Z,3.71
2019-02-07T17:05:54.912Z,3.70
2019-02-07T17:08:24.277Z,3.67
2019-02-07T17:10:53.640Z,3.65
2019-02-07T17:13:22.977Z,3.68
2019-02-07T17:15:52.357Z,3.71
2019-02-07T17:18:21.879Z,3.69
2019-02-07T17:20:53.930Z,3.73
2019-02-07T17:23:23.270Z,3.78
2019-02-07T17:25:52.643Z,3.74
2019-02-07T17:28:21.987Z,3.64
2019-02-07T17:30:51.355Z,3.65
2019-02-07T17:33:20.690Z,3.61
2019-02-07T17:35:50.385Z,3.49
2019-02-07T17:38:19.778Z,3.51
2019-02-07T17:40:49.161Z,3.49
2019-02-07T17:43:18.499Z,3.43
2019-02-07T17:45:47.870Z,3.38
2019-02-07T17:48:17.204Z,3.35
2019-02-07T17:50:46.584Z,3.35
2019-02-07T17:53:17.546Z,3.35
2019-02-07T17:55:47.008Z,3.36
2019-02-07T17:58:16.338Z,3.42
2019-02-07T18:00:56.173Z,3.50
2019-02-07T18:03:25.515Z,3.48
2019-02-07T18:05:54.882Z,3.47
2019-02-07T18:08:24.313Z,3.49
2019-02-07T18:10:53.835Z,3.44
2019-02-07T18:13:23.175Z,3.38
2019-02-07T18:15:52.556Z,3.33
2019-02-07T18:18:21.895Z,3.39
2019-02-07T18:20:51.284Z,3.39
2019-02-07T18:23:20.618Z,3.30
2019-02-07T18:25:50.639Z,3.25
2019-02-07T18:28:19.974Z,3.28
2019-02-07T18:30:49.341Z,3.28
2019-02-07T18:33:18.689Z,3.28
2019-02-07T18:35:48.250Z,3.26
2019-02-07T18:38:17.754Z,3.31
2019-02-07T18:40:49.845Z,3.24
2019-02-07T18:43:19.181Z,3.24
2019-02-07T18:45:48.537Z,3.25
2019-02-07T18:48:17.875Z,3.22
2019-02-07T18:50:47.238Z,3.24
2019-02-07T18:53:16.580Z,3.22
2019-02-07T18:55:46.122Z,3.18
2019-02-07T18:58:15.462Z,3.21
2019-02-07T19:00:44.837Z,3.24
2019-02-07T19:03:14.165Z,3.18
2019-02-07T19:05:43.527Z,3.17
2019-02-07T19:08:12.862Z,3.14
2019-02-07T19:10:42.567Z,3.19
2019-02-07T19:13:11.998Z,3.20
2019-02-07T19:15:50.373Z,3.18
2019-02-07T19:18:19.957Z,3.17
2019-02-07T19:20:49.358Z,3.19
2019-02-07T19:23:18.810Z,3.11
2019-02-07T19:25:48.175Z,3.07
2019-02-07T19:28:17.512Z,3.02
2019-02-07T19:30:46.896Z,2.98
2019-02-07T19:33:16.374Z,3.02
2019-02-07T19:35:45.919Z,3.00
2019-02-07T19:38:15.366Z,2.93
2019-02-07T19:40:44.805Z,2.96
2019-02-07T19:43:14.171Z,2.83
2019-02-07T19:45:50.820Z,2.82
2019-02-07T19:48:21.538Z,2.74
2019-02-07T19:50:52.684Z,2.68
2019-02-07T19:53:22.262Z,2.63
2019-02-07T19:55:55.135Z,2.63
2019-02-07T19:58:29.607Z,2.66
2019-02-07T20:01:01.250Z,2.63
2019-02-07T20:03:37.629Z,2.52
2019-02-07T20:06:09.160Z,2.52
2019-02-07T20:08:40.498Z,2.49
2019-02-07T20:11:11.047Z,2.44
2019-02-07T20:13:41.883Z,2.36
2019-02-07T20:16:11.346Z,2.35
2019-02-07T20:18:41.131Z,2.40
2019-02-07T20:21:10.532Z,2.32
2019-02-07T20:23:41.318Z,2.28
2019-02-07T20:26:11.250Z,2.28
2019-02-07T20:28:41.557Z,2.24
2019-02-07T20:31:12.389Z,2.30
2019-02-07T20:33:41.731Z,2.29
2019-02-07T20:36:11.459Z,2.34
2019-02-07T20:38:43.321Z,2.29
2019-02-07T20:41:20.512Z,2.28
2019-02-07T20:43:51.135Z,2.34
2019-02-07T20:46:29.601Z,2.37
2019-02-07T20:49:05.004Z,2.44
2019-02-07T20:51:36.881Z,2.42
2019-02-07T20:54:09.477Z,2.44
2019-02-07T20:56:46.736Z,2.43
2019-02-07T20:59:27.447Z,2.45
2019-02-07T21:02:01.957Z,2.48
2019-02-07T21:04:32.890Z,2.40
2019-02-07T21:07:09.242Z,2.45
2019-02-07T21:09:45.963Z,2.41
2019-02-07T21:12:16.256Z,2.41
2019-02-07T21:14:53.820Z,2.41
2019-02-07T21:17:24.096Z,2.39
2019-02-07T21:19:53.451Z,2.40
2019-02-07T21:22:23.261Z,2.40
2019-02-07T21:24:52.593Z,2.43
2019-02-07T21:27:25.458Z,2.45
2019-02-07T21:30:03.800Z,2.44
2019-02-07T21:32:40.537Z,2.46
2019-02-07T21:35:17.645Z,2.43
2019-02-07T21:37:47.014Z,2.47
2019-02-07T21:40:21.337Z,2.51
2019-02-07T21:42:51.228Z,2.48
2019-02-07T21:45:21.932Z,2.54
2019-02-07T21:47:51.667Z,2.55
2019-02-07T21:50:25.579Z,2.55
2019-02-07T21:53:05.148Z,2.58
2019-02-07T21:55:38.154Z,2.58
2019-02-07T21:58:14.871Z,2.62
2019-02-07T22:00:50.356Z,2.67
2019-02-07T22:03:20.243Z,2.72
2019-02-07T22:05:49.574Z,2.72
2019-02-07T22:08:18.942Z,2.74
2019-02-07T22:10:48.277Z,2.66
2019-02-07T22:13:17.642Z,2.69
2019-02-07T22:15:46.986Z,2.68
2019-02-07T22:18:16.362Z,2.68
2019-02-07T22:20:45.694Z,2.67
2019-02-07T22:23:15.063Z,2.68
2019-02-07T22:25:44.429Z,2.67
2019-02-07T22:28:13.776Z,2.68
2019-02-07T22:30:43.156Z,2.69
2019-02-07T22:33:13.006Z,2.71
2019-02-07T22:35:46.631Z,2.71
2019-02-07T22:38:16.550Z,2.72
2019-02-07T22:40:53.541Z,2.72
2019-02-07T22:43:26.293Z,2.71
2019-02-07T22:45:57.972Z,2.70
2019-02-07T22:48:27.301Z,2.68
2019-02-07T22:50:56.667Z,2.69
2019-02-07T22:53:26.000Z,2.72
2019-02-07T22:55:55.358Z,2.69
2019-02-07T22:58:24.699Z,2.70
2019-02-07T23:06:53.622Z,2.65
2019-02-07T23:09:22.992Z,2.60
2019-02-07T23:11:52.725Z,2.61
2019-02-07T23:14:22.086Z,2.62
2019-02-07T23:16:51.496Z,2.59
2019-02-07T23:19:20.907Z,2.60
2019-02-07T23:21:50.224Z,2.57
2019-02-07T23:24:19.592Z,2.51
2019-02-07T23:26:49.239Z,2.51
2019-02-07T23:29:18.612Z,2.54
2019-02-07T23:31:47.973Z,2.52
2019-02-07T23:34:17.305Z,2.46
2019-02-07T23:36:46.673Z,2.42
2019-02-07T23:39:16.008Z,2.45
2019-02-07T23:41:45.746Z,2.43
2019-02-07T23:44:15.083Z,2.40
2019-02-07T23:46:52.994Z,2.38
2019-02-07T23:49:27.682Z,2.36
2019-02-07T23:52:03.784Z,2.25
2019-02-07T23:54:42.882Z,2.23
2019-02-07T23:57:12.475Z,2.18
2019-02-07T23:59:41.813Z,2.15
